Time;durP1;ratioP1;P1;durP2;ratioP2;P2;SDS_P1;SDS_P2;PMS_P1;PMS_P2;Temp;Humidity;BMP_temperature;BMP_pressure;BME280_temperature;BME280_humidity;BME280_pressure;Samples;Min_cycle;Max_cycle;Signal;HPM_P1;HPM_P2
2023/06/07 06:01:36;;;;;;;;;;;;;;;21.62;52.09;100622.64;109032;1273;23300;-46
2023/06/07 06:04:03;;;;;;;;;;;;;;;21.74;51.45;100624.94;107916;1280;22526;-45
2023/06/07 06:06:31;;;;;;;;;;;;;;;21.85;51.04;100623.10;106757;1281;22527;-51
2023/06/07 06:08:58;;;;;;;;;;;;;;;21.94;50.28;100620.21;108900;1280;22503;-49
2023/06/07 06:11:26;;;;;;;;;;;;;;;22.05;49.69;100620.11;108903;1277;23289;-51
2023/06/07 06:13:53;;;;;;;;;;;;;;;22.16;49.22;100618.25;107520;1281;22509;-44
2023/06/07 06:16:21;;;;;;;;;;;;;;;22.30;49.11;100610.56;107313;1281;24146;-51
2023/06/07 06:18:48;;;;;;;;;;;;;;;22.45;49.30;100609.89;109456;1280;22467;-45
2023/06/07 06:21:16;;;;;;;;;;;;;;;22.61;48.72;100606.69;109869;1280;23186;-45
2023/06/07 06:23:43;;;;;;;;;;;;;;;22.75;48.96;100606.79;109823;1281;22468;-51
2023/06/07 06:26:11;;;;;;;;;;;;;;;22.89;48.71;100608.13;109833;1273;23119;-50
2023/06/07 06:28:38;;;;;;;;;;;;;;;23.02;48.08;100603.23;109769;1281;23237;-50
2023/06/07 06:31:06;;;;;;;;;;;;;;;23.18;47.80;100599.85;109765;1276;23324;-44
2023/06/07 06:33:34;;;;;;;;;;;;;;;23.33;47.56;100599.66;109835;1277;22786;-46
2023/06/07 06:36:02;;;;;;;;;;;;;;;23.47;47.24;100600.05;109870;1277;22904;-45
2023/06/07 06:38:29;;;;;;;;;;;;;;;23.62;46.98;100599.66;109869;1281;22409;-51
2023/06/07 06:40:57;;;;;;;;;;;;;;;23.76;46.66;100597.56;109843;1282;22462;-46
2023/06/07 06:43:24;;;;;;;;;;;;;;;23.89;46.02;100596.94;109857;1280;23161;-52
2023/06/07 06:45:56;;;;;;;;;;;;;;;24.04;45.57;100597.23;108978;1273;23452;-45
2023/06/07 06:48:23;;;;;;;;;;;;;;;24.19;44.25;100594.33;109117;1275;22497;-51
2023/06/07 06:50:51;;;;;;;;;;;;;;;24.33;42.76;100596.28;108986;1273;23456;-51
2023/06/07 06:53:18;;;;;;;;;;;;;;;24.46;42.26;100590.10;109844;1276;22442;-46
2023/06/07 06:55:47;;;;;;;;;;;;;;;24.59;41.91;100588.14;109127;1281;22637;-45
2023/06/07 06:58:15;;;;;;;;;;;;;;;24.70;41.32;100589.48;109854;1280;22434;-46
2023/06/07 07:00:43;;;;;;;;;;;;;;;24.84;41.07;100588.77;109739;1282;23176;-51
2023/06/07 07:03:11;;;;;;;;;;;;;;;24.94;40.20;100590.34;109687;1282;24094;-51
2023/06/07 07:05:38;;;;;;;;;;;;;;;25.03;39.54;100592.55;109634;1283;23253;-45
2023/06/07 07:08:06;;;;;;;;;;;;;;;25.11;39.77;100593.67;109674;1282;22468;-45
2023/06/07 07:10:34;;;;;;;;;;;;;;;25.22;38.70;100597.77;109690;1282;23151;-45
2023/06/07 07:13:02;;;;;;;;;;;;;;;25.30;37.58;100600.00;109735;1282;22972;-51
2023/06/07 07:15:29;;;;;;;;;;;;;;;25.35;35.77;100598.23;109636;1282;22669;-52
2023/06/07 07:17:57;;;;;;;;;;;;;;;25.39;34.87;100599.79;109616;1283;23168;-46
2023/06/07 07:20:25;;;;;;;;;;;;;;;25.40;34.23;100600.11;109587;1281;22449;-53
2023/06/07 07:22:52;;;;;;;;;;;;;;;25.42;34.33;100603.73;109554;1282;22459;-46
2023/06/07 07:25:20;;;;;;;;;;;;;;;25.50;34.42;100596.89;109608;1282;22449;-46
2023/06/07 07:27:47;;;;;;;;;;;;;;;25.59;33.48;100600.27;109688;1282;23197;-51
2023/06/07 07:30:15;;;;;;;;;;;;;;;25.68;33.79;100600.48;109696;1281;22980;-51
2023/06/07 07:32:45;;;;;;;;;;;;;;;25.79;33.13;100600.23;109726;1282;22441;-46
2023/06/07 07:35:24;;;;;;;;;;;;;;;25.84;32.70;100599.02;109696;1282;22443;-45
2023/06/07 07:37:55;;;;;;;;;;;;;;;25.92;33.01;100598.34;109695;1283;22464;-45
2023/06/07 07:40:23;;;;;;;;;;;;;;;26.02;32.09;100599.40;109568;1281;22842;-45
2023/06/07 07:42:52;;;;;;;;;;;;;;;26.09;31.87;100599.36;109514;1282;22458;-44
2023/06/07 07:45:19;;;;;;;;;;;;;;;26.18;31.51;100594.86;109795;1282;22555;-51
2023/06/07 07:47:47;;;;;;;;;;;;;;;26.33;30.88;100592.34;109771;1281;22451;-51
2023/06/07 07:50:15;;;;;;;;;;;;;;;26.50;30.53;100595.77;108618;1283;24347;-44
2023/06/07 07:52:43;;;;;;;;;;;;;;;26.70;30.46;100597.94;109266;1282;22502;-45
2023/06/07 07:55:11;;;;;;;;;;;;;;;26.84;29.31;100591.16;109693;1281;22432;-45
2023/06/07 07:57:38;;;;;;;;;;;;;;;26.94;28.22;100590.91;109469;1282;23061;-46
2023/06/07 08:00:06;;;;;;;;;;;;;;;27.05;28.39;100587.50;108799;1282;22467;-45
2023/06/07 08:02:38;;;;;;;;;;;;;;;27.16;27.08;100582.35;109873;1281;22439;-52
2023/06/07 08:05:06;;;;;;;;;;;;;;;27.13;26.67;100579.73;108144;1281;22538;-44
2023/06/07 08:07:34;;;;;;;;;;;;;;;27.01;27.61;100582.70;108649;1281;22500;-44
2023/06/07 08:10:02;;;;;;;;;;;;;;;26.94;28.45;100580.88;109820;1281;22442;-46
2023/06/07 08:12:30;;;;;;;;;;;;;;;26.91;28.39;100586.61;109860;1282;22411;-50
2023/06/07 08:15:01;;;;;;;;;;;;;;;26.87;28.12;100586.69;109817;1282;22441;-45
2023/06/07 08:17:28;;;;;;;;;;;;;;;26.72;27.98;100586.19;109837;1278;22431;-51
2023/06/07 08:19:56;;;;;;;;;;;;;;;26.64;28.57;100587.27;109818;1281;23107;-51
2023/06/07 08:22:23;;;;;;;;;;;;;;;26.60;27.96;100585.52;109881;1278;22449;-46
2023/06/07 08:24:51;;;;;;;;;;;;;;;26.49;27.70;100588.32;109800;1281;22460;-46
2023/06/07 08:27:18;;;;;;;;;;;;;;;26.37;28.27;100591.75;109790;1281;22472;-46
2023/06/07 08:29:46;;;;;;;;;;;;;;;26.31;28.63;100588.02;109224;1280;23302;-51
2023/06/07 08:32:14;;;;;;;;;;;;;;;26.29;29.07;100582.59;108742;1281;22560;-46
2023/06/07 08:34:41;;;;;;;;;;;;;;;26.37;29.23;100580.83;109394;1281;22530;-46
2023/06/07 08:37:09;;;;;;;;;;;;;;;26.56;28.53;100578.63;108851;1276;22533;-47
2023/06/07 08:39:37;;;;;;;;;;;;;;;26.76;28.03;100579.31;109051;1281;23285;-46
2023/06/07 08:42:05;;;;;;;;;;;;;;;26.99;27.47;100581.77;109815;1281;23275;-52
2023/06/07 08:44:32;;;;;;;;;;;;;;;27.15;26.63;100579.54;109487;1281;22606;-45
2023/06/07 08:47:00;;;;;;;;;;;;;;;27.25;26.16;100581.91;109710;1275;22522;-46
2023/06/07 08:49:28;;;;;;;;;;;;;;;27.29;25.92;100583.09;108693;1281;22509;-51
2023/06/07 08:51:56;;;;;;;;;;;;;;;27.36;26.44;100582.17;109692;1281;22681;-45
2023/06/07 08:54:42;;;;;;;;;;;;;;;27.57;26.60;100581.09;109695;1281;22931;-46
2023/06/07 08:57:10;;;;;;;;;;;;;;;27.78;26.48;100584.75;109803;1275;22420;-45
2023/06/07 08:59:38;;;;;;;;;;;;;;;27.94;26.72;100584.92;108820;1281;22595;-45
2023/06/07 09:02:05;;;;;;;;;;;;;;;28.00;26.84;100589.13;107839;1283;22507;-47
2023/06/07 09:04:34;;;;;;;;;;;;;;;28.06;26.49;100586.23;109887;1277;22486;-45
2023/06/07 09:07:04;;;;;;;;;;;;;;;28.02;26.75;100588.50;109352;1281;22488;-44
2023/06/07 09:09:32;;;;;;;;;;;;;;;28.03;26.71;100588.77;109547;1275;22485;-52
2023/06/07 09:12:00;;;;;;;;;;;;;;;28.01;26.72;100590.48;109787;1273;22531;-52
2023/06/07 09:14:29;;;;;;;;;;;;;;;27.96;26.95;100588.36;109791;1277;22822;-45
2023/06/07 09:16:57;;;;;;;;;;;;;;;27.94;27.27;100590.31;109760;1281;22436;-51
2023/06/07 09:19:31;;;;;;;;;;;;;;;27.87;26.89;100593.48;109201;1273;22635;-51
2023/06/07 09:21:58;;;;;;;;;;;;;;;27.59;26.54;100594.77;108435;1281;22643;-51
2023/06/07 09:24:27;;;;;;;;;;;;;;;27.31;26.47;100591.21;109623;1281;23253;-45
2023/06/07 09:26:55;;;;;;;;;;;;;;;27.08;26.93;100592.02;108375;1275;24261;-45
2023/06/07 09:29:27;;;;;;;;;;;;;;;26.92;27.32;100594.99;108168;1278;22521;-46
2023/06/07 09:31:56;;;;;;;;;;;;;;;26.75;27.88;100596.55;108495;1275;22605;-46
2023/06/07 09:34:24;;;;;;;;;;;;;;;26.65;27.99;100595.39;108429;1278;22563;-46
2023/06/07 09:36:56;;;;;;;;;;;;;;;26.59;28.48;100592.55;109430;1278;22514;-50
2023/06/07 09:39:24;;;;;;;;;;;;;;;26.51;28.70;100592.17;107954;1275;22566;-51
2023/06/07 09:41:55;;;;;;;;;;;;;;;26.42;28.74;100594.35;107410;1280;24269;-51
2023/06/07 09:44:31;;;;;;;;;;;;;;;26.33;28.72;100597.52;109311;1281;27101;-45
2023/06/07 09:46:59;;;;;;;;;;;;;;;26.27;28.92;100598.23;108331;1277;23337;-45
2023/06/07 09:49:33;;;;;;;;;;;;;;;26.21;28.70;100596.09;109925;1275;23252;-45
2023/06/07 09:52:01;;;;;;;;;;;;;;;26.14;28.55;100599.05;109907;1275;22450;-45
2023/06/07 09:54:36;;;;;;;;;;;;;;;26.02;28.66;100601.22;109840;1276;22469;-45
2023/06/07 09:57:06;;;;;;;;;;;;;;;25.84;28.60;100598.66;109124;1280;22487;-45
2023/06/07 09:59:35;;;;;;;;;;;;;;;25.74;28.66;100603.89;109445;1277;24196;-45
2023/06/07 10:02:24;;;;;;;;;;;;;;;25.70;28.40;100598.55;109310;1282;23606;-45
2023/06/07 10:04:52;;;;;;;;;;;;;;;25.69;28.17;100595.04;109773;1282;23161;-45
2023/06/07 10:07:24;;;;;;;;;;;;;;;25.69;28.33;100594.52;109752;1276;22440;-54
2023/06/07 10:09:56;;;;;;;;;;;;;;;25.70;28.02;100590.67;109739;1281;22464;-46
2023/06/07 10:12:27;;;;;;;;;;;;;;;25.73;28.35;100590.69;109802;1281;23192;-51
2023/06/07 10:14:54;;;;;;;;;;;;;;;25.75;28.51;100587.76;109631;1276;22477;-45
2023/06/07 10:17:25;;;;;;;;;;;;;;;25.78;28.81;100587.63;109682;1281;22439;-51
2023/06/07 10:19:57;;;;;;;;;;;;;;;25.81;28.51;100583.50;109719;1275;23712;-45
2023/06/07 10:22:29;;;;;;;;;;;;;;;25.86;29.15;100584.09;109659;1276;22430;-45
2023/06/07 10:24:59;;;;;;;;;;;;;;;25.91;28.96;100579.81;109686;1275;22530;-45
2023/06/07 10:27:28;;;;;;;;;;;;;;;25.98;28.19;100577.09;109745;1276;22465;-51
2023/06/07 10:30:00;;;;;;;;;;;;;;;26.02;28.74;100576.18;109761;1275;23294;-45
2023/06/07 10:32:34;;;;;;;;;;;;;;;26.08;29.18;100570.46;109723;1275;22441;-53
2023/06/07 10:35:03;;;;;;;;;;;;;;;26.16;28.91;100566.16;109711;1277;22461;-47
2023/06/07 10:37:33;;;;;;;;;;;;;;;26.24;28.28;100564.61;109738;1275;22499;-45
2023/06/07 10:40:05;;;;;;;;;;;;;;;26.30;28.42;100565.19;109695;1275;22759;-45
2023/06/07 10:42:33;;;;;;;;;;;;;;;26.35;28.48;100568.61;109820;1275;23296;-52
2023/06/07 10:45:01;;;;;;;;;;;;;;;26.38;28.22;100571.65;109692;1275;22456;-51
2023/06/07 10:47:29;;;;;;;;;;;;;;;26.34;27.84;100578.34;109736;1275;22428;-46
2023/06/07 10:49:57;;;;;;;;;;;;;;;26.18;27.64;100575.55;109745;1275;23143;-46
2023/06/07 10:52:26;;;;;;;;;;;;;;;26.07;27.50;100572.49;109863;1275;23227;-46
2023/06/07 10:54:55;;;;;;;;;;;;;;;26.01;27.20;100572.81;109719;1277;23180;-46
2023/06/07 10:57:37;;;;;;;;;;;;;;;25.95;27.30;100567.60;109012;1276;23277;-46
2023/06/07 11:00:25;;;;;;;;;;;;;;;25.96;27.41;100564.52;109806;1274;22450;-52
2023/06/07 11:03:16;;;;;;;;;;;;;;;26.08;27.18;100563.51;109793;1278;23184;-46
2023/06/07 11:05:53;;;;;;;;;;;;;;;26.18;26.76;100564.29;109860;1275;22437;-52
2023/06/07 11:08:24;;;;;;;;;;;;;;;26.28;27.17;100561.54;108434;1275;22505;-44
2023/06/07 11:10:58;;;;;;;;;;;;;;;26.40;27.00;100557.80;109807;1278;22416;-49
2023/06/07 11:13:46;;;;;;;;;;;;;;;26.49;26.78;100553.10;108677;1282;24059;-46
2023/06/07 11:16:22;;;;;;;;;;;;;;;26.55;26.31;100553.96;107569;1275;22508;-46
2023/06/07 11:18:53;;;;;;;;;;;;;;;26.63;26.24;100554.04;109000;1279;22490;-45
2023/06/07 11:21:21;;;;;;;;;;;;;;;26.71;26.40;100555.15;106981;1277;22534;-51
2023/06/07 11:24:07;;;;;;;;;;;;;;;26.82;26.80;100556.21;108116;1277;22586;-52
2023/06/07 11:26:35;;;;;;;;;;;;;;;26.94;26.60;100550.83;106857;1281;22509;-50
2023/06/07 11:29:03;;;;;;;;;;;;;;;26.97;26.15;100553.48;108297;1275;22504;-51
2023/06/07 11:31:31;;;;;;;;;;;;;;;27.00;26.35;100553.11;108715;1275;22583;-49
2023/06/07 11:33:58;;;;;;;;;;;;;;;27.01;26.58;100551.38;107939;1278;124858;-45
2023/06/07 11:36:32;;;;;;;;;;;;;;;27.03;26.49;100552.03;108943;1276;23241;-45
2023/06/07 11:39:04;;;;;;;;;;;;;;;26.95;26.54;100553.95;109784;1275;23170;-45
2023/06/07 11:41:32;;;;;;;;;;;;;;;26.87;27.41;100548.73;109853;1272;23119;-46
2023/06/07 11:44:01;;;;;;;;;;;;;;;26.75;27.73;100552.53;109847;1278;22467;-45
2023/06/07 11:46:35;;;;;;;;;;;;;;;26.63;27.95;100549.23;109783;1275;22543;-52
2023/06/07 11:49:03;;;;;;;;;;;;;;;26.52;27.52;100547.93;109811;1275;22808;-51
2023/06/07 11:51:31;;;;;;;;;;;;;;;26.43;27.98;100542.05;109842;1276;23121;-45
2023/06/07 11:53:59;;;;;;;;;;;;;;;26.40;27.93;100543.13;109611;1279;22518;-45
2023/06/07 11:56:27;;;;;;;;;;;;;;;26.44;27.60;100543.23;108168;1282;22508;-50
2023/06/07 11:58:55;;;;;;;;;;;;;;;26.51;27.35;100542.10;107975;1277;22523;-47
2023/06/07 12:01:22;;;;;;;;;;;;;;;26.56;27.78;100541.77;108587;1275;25334;-46
2023/06/07 12:03:50;;;;;;;;;;;;;;;26.61;28.00;100543.41;107467;1279;22526;-51
2023/06/07 12:06:18;;;;;;;;;;;;;;;26.62;27.34;100539.61;107037;1277;22626;-50
2023/06/07 12:08:49;;;;;;;;;;;;;;;26.61;27.48;100541.98;108359;1275;23248;-45
2023/06/07 12:11:19;;;;;;;;;;;;;;;26.59;27.37;100541.05;106965;1281;22548;-47
2023/06/07 12:13:49;;;;;;;;;;;;;;;26.56;27.42;100540.36;109843;1281;23256;-50
2023/06/07 12:16:17;;;;;;;;;;;;;;;26.53;26.88;100534.43;107206;1281;23016;-49
2023/06/07 12:18:44;;;;;;;;;;;;;;;26.51;27.28;100535.48;107196;1282;22524;-52
2023/06/07 12:21:12;;;;;;;;;;;;;;;26.56;27.58;100534.45;107268;1278;22525;-50
2023/06/07 12:23:53;;;;;;;;;;;;;;;26.63;27.58;100534.87;107382;1277;22545;-49
2023/06/07 12:26:21;;;;;;;;;;;;;;;26.63;26.97;100535.05;108844;1282;22573;-50
2023/06/07 12:28:49;;;;;;;;;;;;;;;26.63;27.04;100531.15;109534;1281;22536;-51
2023/06/07 12:31:26;;;;;;;;;;;;;;;26.72;27.40;100522.31;109967;1281;22436;-50
2023/06/07 12:34:01;;;;;;;;;;;;;;;26.83;27.39;100526.30;109842;1281;23215;-45
2023/06/07 12:36:36;;;;;;;;;;;;;;;26.86;27.21;100521.95;109905;1282;22415;-45
2023/06/07 12:39:04;;;;;;;;;;;;;;;26.87;27.48;100515.25;109618;1282;22682;-50
2023/06/07 12:41:32;;;;;;;;;;;;;;;26.94;27.54;100512.14;109452;1274;22527;-45
2023/06/07 12:44:04;;;;;;;;;;;;;;;27.02;27.57;100516.43;109856;1281;22448;-51
2023/06/07 12:46:32;;;;;;;;;;;;;;;27.11;27.70;100510.72;109825;1281;23283;-51
2023/06/07 12:49:00;;;;;;;;;;;;;;;27.18;27.03;100508.66;109886;1281;23206;-45
2023/06/07 12:51:28;;;;;;;;;;;;;;;27.21;26.56;100507.39;109966;1281;22431;-45
2023/06/07 12:53:55;;;;;;;;;;;;;;;27.22;26.57;100507.27;107953;1280;22514;-46
2023/06/07 12:56:23;;;;;;;;;;;;;;;27.25;26.73;100502.60;108615;1282;22892;-46
2023/06/07 12:58:50;;;;;;;;;;;;;;;27.33;26.93;100499.63;108736;1282;23883;-45
2023/06/07 13:01:18;;;;;;;;;;;;;;;27.39;26.32;100494.74;109627;1281;23200;-46
2023/06/07 13:03:45;;;;;;;;;;;;;;;27.43;26.54;100495.69;109889;1281;23189;-46
2023/06/07 13:06:13;;;;;;;;;;;;;;;27.44;25.89;100494.20;109547;1281;22482;-46
2023/06/07 13:08:41;;;;;;;;;;;;;;;27.39;26.51;100495.80;109970;1281;22452;-47
2023/06/07 13:11:09;;;;;;;;;;;;;;;27.35;26.32;100492.67;109921;1281;22510;-51
2023/06/07 13:13:37;;;;;;;;;;;;;;;27.29;26.44;100488.02;108571;1282;24315;-45
2023/06/07 13:16:05;;;;;;;;;;;;;;;27.23;26.50;100488.24;108397;1282;22550;-51
2023/06/07 13:18:38;;;;;;;;;;;;;;;27.17;26.94;100486.89;108920;1281;22736;-44
